sensor_id;sensor_type;location;lat;lon;timestamp;P1;durP1;ratioP1;P2;durP2;ratioP2
74995;SDS011;63545;51.690;5.202;2022-10-31T00:00:16;21.93;;;11.97;;
74995;SDS011;63545;51.690;5.202;2022-10-31T00:02:41;23.67;;;12.40;;
74995;SDS011;63545;51.690;5.202;2022-10-31T00:05:07;29.20;;;12.40;;
74995;SDS011;63545;51.690;5.202;2022-10-31T00:07:32;24.93;;;12.17;;
74995;SDS011;63545;51.690;5.202;2022-10-31T00:09:58;23.37;;;12.00;;
74995;SDS011;63545;51.690;5.202;2022-10-31T00:12:23;22.97;;;12.57;;
74995;SDS011;63545;51.690;5.202;2022-10-31T00:14:48;22.77;;;12.43;;
74995;SDS011;63545;51.690;5.202;2022-10-31T00:17:14;19.80;;;11.47;;
74995;SDS011;63545;51.690;5.202;2022-10-31T00:19:39;22.50;;;12.23;;
74995;SDS011;63545;51.690;5.202;2022-10-31T00:22:04;25.65;;;12.65;;
74995;SDS011;63545;51.690;5.202;2022-10-31T00:24:30;23.63;;;12.63;;
74995;SDS011;63545;51.690;5.202;2022-10-31T00:26:55;21.50;;;12.80;;
74995;SDS011;63545;51.690;5.202;2022-10-31T00:29:20;24.57;;;12.83;;
74995;SDS011;63545;51.690;5.202;2022-10-31T00:31:46;27.63;;;12.93;;
74995;SDS011;63545;51.690;5.202;2022-10-31T00:34:11;21.50;;;12.50;;
74995;SDS011;63545;51.690;5.202;2022-10-31T00:36:36;23.03;;;12.40;;
74995;SDS011;63545;51.690;5.202;2022-10-31T00:39:01;27.07;;;13.83;;
74995;SDS011;63545;51.690;5.202;2022-10-31T00:41:27;24.75;;;13.70;;
74995;SDS011;63545;51.690;5.202;2022-10-31T00:43:52;19.60;;;12.60;;
74995;SDS011;63545;51.690;5.202;2022-10-31T00:46:17;24.37;;;14.03;;
74995;SDS011;63545;51.690;5.202;2022-10-31T00:48:43;21.13;;;12.77;;
74995;SDS011;63545;51.690;5.202;2022-10-31T00:51:08;25.93;;;14.23;;
74995;SDS011;63545;51.690;5.202;2022-10-31T00:53:34;28.65;;;14.25;;
74995;SDS011;63545;51.690;5.202;2022-10-31T00:56:00;24.70;;;13.30;;
74995;SDS011;63545;51.690;5.202;2022-10-31T00:58:25;25.03;;;13.43;;
74995;SDS011;63545;51.690;5.202;2022-10-31T01:00:50;25.30;;;13.97;;
74995;SDS011;63545;51.690;5.202;2022-10-31T01:03:20;26.50;;;14.43;;
74995;SDS011;63545;51.690;5.202;2022-10-31T01:05:54;25.73;;;14.32;;
74995;SDS011;63545;51.690;5.202;2022-10-31T01:08:20;25.20;;;13.98;;
74995;SDS011;63545;51.690;5.202;2022-10-31T01:10:46;29.30;;;15.33;;
74995;SDS011;63545;51.690;5.202;2022-10-31T01:13:11;28.93;;;15.00;;
74995;SDS011;63545;51.690;5.202;2022-10-31T01:15:36;27.83;;;14.63;;
74995;SDS011;63545;51.690;5.202;2022-10-31T01:18:02;27.73;;;13.70;;
74995;SDS011;63545;51.690;5.202;2022-10-31T01:20:27;25.53;;;14.57;;
74995;SDS011;63545;51.690;5.202;2022-10-31T01:22:52;26.73;;;13.73;;
74995;SDS011;63545;51.690;5.202;2022-10-31T01:25:18;25.45;;;13.70;;
74995;SDS011;63545;51.690;5.202;2022-10-31T01:27:43;27.03;;;13.50;;
74995;SDS011;63545;51.690;5.202;2022-10-31T01:30:08;23.87;;;13.40;;
74995;SDS011;63545;51.690;5.202;2022-10-31T01:32:34;29.53;;;14.07;;
74995;SDS011;63545;51.690;5.202;2022-10-31T01:34:59;25.53;;;13.83;;
74995;SDS011;63545;51.690;5.202;2022-10-31T01:37:25;27.50;;;14.83;;
74995;SDS011;63545;51.690;5.202;2022-10-31T01:39:50;28.83;;;14.67;;
74995;SDS011;63545;51.690;5.202;2022-10-31T01:42:17;24.80;;;13.80;;
74995;SDS011;63545;51.690;5.202;2022-10-31T01:44:49;26.95;;;14.20;;
74995;SDS011;63545;51.690;5.202;2022-10-31T01:47:20;26.33;;;14.63;;
74995;SDS011;63545;51.690;5.202;2022-10-31T01:49:51;23.27;;;14.30;;
74995;SDS011;63545;51.690;5.202;2022-10-31T01:55:17;24.40;;;15.02;;
74995;SDS011;63545;51.690;5.202;2022-10-31T01:57:46;31.42;;;15.07;;
74995;SDS011;63545;51.690;5.202;2022-10-31T02:00:14;24.92;;;13.93;;
74995;SDS011;63545;51.690;5.202;2022-10-31T02:02:40;29.33;;;14.63;;
74995;SDS011;63545;51.690;5.202;2022-10-31T02:05:06;29.75;;;14.57;;
74995;SDS011;63545;51.690;5.202;2022-10-31T02:07:39;25.95;;;14.95;;
74995;SDS011;63545;51.690;5.202;2022-10-31T02:10:08;30.15;;;16.10;;
74995;SDS011;63545;51.690;5.202;2022-10-31T02:12:33;27.87;;;15.47;;
74995;SDS011;63545;51.690;5.202;2022-10-31T02:15:01;30.30;;;16.83;;
74995;SDS011;63545;51.690;5.202;2022-10-31T02:17:26;31.40;;;16.58;;
74995;SDS011;63545;51.690;5.202;2022-10-31T02:20:00;29.23;;;16.10;;
74995;SDS011;63545;51.690;5.202;2022-10-31T02:33:57;28.67;;;16.48;;
74995;SDS011;63545;51.690;5.202;2022-10-31T02:36:27;27.17;;;16.13;;
74995;SDS011;63545;51.690;5.202;2022-10-31T02:44:21;31.45;;;16.20;;
74995;SDS011;63545;51.690;5.202;2022-10-31T02:47:06;25.80;;;15.95;;
74995;SDS011;63545;51.690;5.202;2022-10-31T02:49:41;29.05;;;16.75;;
74995;SDS011;63545;51.690;5.202;2022-10-31T02:52:17;25.75;;;15.18;;
74995;SDS011;63545;51.690;5.202;2022-10-31T02:54:45;27.90;;;16.43;;
74995;SDS011;63545;51.690;5.202;2022-10-31T02:57:11;29.60;;;17.33;;
74995;SDS011;63545;51.690;5.202;2022-10-31T02:59:38;29.45;;;16.27;;
74995;SDS011;63545;51.690;5.202;2022-10-31T03:02:12;28.92;;;16.85;;
74995;SDS011;63545;51.690;5.202;2022-10-31T03:13:36;28.75;;;16.63;;
74995;SDS011;63545;51.690;5.202;2022-10-31T03:19:09;31.67;;;16.65;;
74995;SDS011;63545;51.690;5.202;2022-10-31T03:21:39;27.00;;;16.03;;
74995;SDS011;63545;51.690;5.202;2022-10-31T03:24:07;30.92;;;15.85;;
74995;SDS011;63545;51.690;5.202;2022-10-31T03:26:35;35.50;;;17.08;;
74995;SDS011;63545;51.690;5.202;2022-10-31T03:29:05;30.90;;;16.75;;
74995;SDS011;63545;51.690;5.202;2022-10-31T03:31:34;28.10;;;16.23;;
74995;SDS011;63545;51.690;5.202;2022-10-31T03:34:02;32.83;;;16.00;;
74995;SDS011;63545;51.690;5.202;2022-10-31T03:36:29;26.90;;;14.82;;
74995;SDS011;63545;51.690;5.202;2022-10-31T03:38:56;27.48;;;14.70;;
74995;SDS011;63545;51.690;5.202;2022-10-31T03:41:23;28.37;;;14.60;;
74995;SDS011;63545;51.690;5.202;2022-10-31T03:43:53;25.23;;;15.23;;
74995;SDS011;63545;51.690;5.202;2022-10-31T03:46:21;28.73;;;15.40;;
74995;SDS011;63545;51.690;5.202;2022-10-31T03:48:47;25.15;;;15.05;;
74995;SDS011;63545;51.690;5.202;2022-10-31T03:51:26;27.53;;;15.33;;
74995;SDS011;63545;51.690;5.202;2022-10-31T03:54:02;29.02;;;15.88;;
74995;SDS011;63545;51.690;5.202;2022-10-31T03:56:33;24.13;;;15.18;;
74995;SDS011;63545;51.690;5.202;2022-10-31T03:59:02;26.23;;;14.60;;
74995;SDS011;63545;51.690;5.202;2022-10-31T04:01:31;28.30;;;14.80;;
74995;SDS011;63545;51.690;5.202;2022-10-31T04:03:59;23.45;;;14.63;;
74995;SDS011;63545;51.690;5.202;2022-10-31T04:06:25;23.00;;;13.98;;
74995;SDS011;63545;51.690;5.202;2022-10-31T04:08:51;24.07;;;14.47;;
74995;SDS011;63545;51.690;5.202;2022-10-31T04:11:19;20.95;;;14.13;;
74995;SDS011;63545;51.690;5.202;2022-10-31T04:13:46;25.95;;;15.23;;
74995;SDS011;63545;51.690;5.202;2022-10-31T04:16:13;23.67;;;13.75;;
74995;SDS011;63545;51.690;5.202;2022-10-31T04:18:39;26.30;;;14.13;;
74995;SDS011;63545;51.690;5.202;2022-10-31T04:21:05;25.97;;;14.50;;
74995;SDS011;63545;51.690;5.202;2022-10-31T04:23:32;26.40;;;14.40;;
74995;SDS011;63545;51.690;5.202;2022-10-31T04:25:58;26.88;;;14.93;;
74995;SDS011;63545;51.690;5.202;2022-10-31T04:28:23;24.83;;;14.93;;
74995;SDS011;63545;51.690;5.202;2022-10-31T04:30:49;23.67;;;14.60;;
74995;SDS011;63545;51.690;5.202;2022-10-31T04:33:14;26.95;;;16.00;;
74995;SDS011;63545;51.690;5.202;2022-10-31T04:35:40;24.67;;;15.67;;
74995;SDS011;63545;51.690;5.202;2022-10-31T04:38:05;27.40;;;15.83;;
74995;SDS011;63545;51.690;5.202;2022-10-31T04:40:30;29.83;;;16.73;;
74995;SDS011;63545;51.690;5.202;2022-10-31T04:42:56;34.60;;;16.60;;
74995;SDS011;63545;51.690;5.202;2022-10-31T04:45:21;27.77;;;15.73;;
74995;SDS011;63545;51.690;5.202;2022-10-31T04:47:46;35.45;;;14.45;;
74995;SDS011;63545;51.690;5.202;2022-10-31T04:50:12;25.57;;;14.50;;
74995;SDS011;63545;51.690;5.202;2022-10-31T04:52:40;27.13;;;14.20;;
74995;SDS011;63545;51.690;5.202;2022-10-31T04:55:06;18.23;;;12.57;;
74995;SDS011;63545;51.690;5.202;2022-10-31T04:57:32;19.13;;;12.23;;
74995;SDS011;63545;51.690;5.202;2022-10-31T04:59:57;19.83;;;11.83;;
74995;SDS011;63545;51.690;5.202;2022-10-31T05:02:23;19.37;;;11.97;;
74995;SDS011;63545;51.690;5.202;2022-10-31T05:04:48;22.38;;;12.98;;
74995;SDS011;63545;51.690;5.202;2022-10-31T05:07:13;20.30;;;13.30;;
74995;SDS011;63545;51.690;5.202;2022-10-31T05:09:38;21.53;;;12.87;;
74995;SDS011;63545;51.690;5.202;2022-10-31T05:12:04;22.43;;;14.20;;
74995;SDS011;63545;51.690;5.202;2022-10-31T05:14:29;19.90;;;13.03;;
74995;SDS011;63545;51.690;5.202;2022-10-31T05:16:54;24.90;;;14.40;;
74995;SDS011;63545;51.690;5.202;2022-10-31T05:19:20;26.13;;;15.63;;
74995;SDS011;63545;51.690;5.202;2022-10-31T05:21:45;23.83;;;14.93;;
74995;SDS011;63545;51.690;5.202;2022-10-31T05:24:10;26.50;;;15.93;;
74995;SDS011;63545;51.690;5.202;2022-10-31T05:26:36;28.13;;;15.40;;
74995;SDS011;63545;51.690;5.202;2022-10-31T05:29:01;26.97;;;16.57;;
74995;SDS011;63545;51.690;5.202;2022-10-31T05:31:26;28.10;;;17.00;;
74995;SDS011;63545;51.690;5.202;2022-10-31T05:33:52;27.17;;;16.57;;
74995;SDS011;63545;51.690;5.202;2022-10-31T05:36:17;28.83;;;16.30;;
74995;SDS011;63545;51.690;5.202;2022-10-31T05:38:43;29.73;;;16.53;;
74995;SDS011;63545;51.690;5.202;2022-10-31T05:41:08;31.77;;;16.60;;
74995;SDS011;63545;51.690;5.202;2022-10-31T05:43:34;28.73;;;17.33;;
74995;SDS011;63545;51.690;5.202;2022-10-31T05:46:00;33.10;;;17.47;;
74995;SDS011;63545;51.690;5.202;2022-10-31T05:48:25;31.50;;;18.23;;
74995;SDS011;63545;51.690;5.202;2022-10-31T05:50:50;33.77;;;18.00;;
74995;SDS011;63545;51.690;5.202;2022-10-31T05:53:17;37.50;;;18.70;;
74995;SDS011;63545;51.690;5.202;2022-10-31T05:55:42;32.53;;;18.07;;
74995;SDS011;63545;51.690;5.202;2022-10-31T05:58:09;34.55;;;18.27;;
74995;SDS011;63545;51.690;5.202;2022-10-31T06:00:35;34.80;;;17.70;;
74995;SDS011;63545;51.690;5.202;2022-10-31T06:03:01;33.97;;;18.73;;
74995;SDS011;63545;51.690;5.202;2022-10-31T06:05:31;38.35;;;18.33;;
74995;SDS011;63545;51.690;5.202;2022-10-31T06:07:56;31.50;;;17.77;;
74995;SDS011;63545;51.690;5.202;2022-10-31T06:10:22;33.07;;;18.40;;
74995;SDS011;63545;51.690;5.202;2022-10-31T06:12:48;36.80;;;17.92;;
74995;SDS011;63545;51.690;5.202;2022-10-31T06:15:13;32.20;;;17.63;;
74995;SDS011;63545;51.690;5.202;2022-10-31T06:17:39;36.50;;;18.58;;
74995;SDS011;63545;51.690;5.202;2022-10-31T06:20:04;37.93;;;19.50;;
74995;SDS011;63545;51.690;5.202;2022-10-31T06:22:30;35.93;;;19.47;;
74995;SDS011;63545;51.690;5.202;2022-10-31T06:24:55;35.90;;;18.70;;
74995;SDS011;63545;51.690;5.202;2022-10-31T06:27:21;34.70;;;18.20;;
74995;SDS011;63545;51.690;5.202;2022-10-31T06:29:46;39.87;;;18.63;;
74995;SDS011;63545;51.690;5.202;2022-10-31T06:32:12;36.00;;;20.20;;
74995;SDS011;63545;51.690;5.202;2022-10-31T06:34:38;34.08;;;18.38;;
74995;SDS011;63545;51.690;5.202;2022-10-31T06:37:05;32.33;;;18.15;;
74995;SDS011;63545;51.690;5.202;2022-10-31T06:39:31;38.43;;;19.37;;
74995;SDS011;63545;51.690;5.202;2022-10-31T06:41:57;36.97;;;19.40;;
74995;SDS011;63545;51.690;5.202;2022-10-31T06:44:22;34.35;;;18.75;;
74995;SDS011;63545;51.690;5.202;2022-10-31T06:46:47;39.05;;;20.20;;
74995;SDS011;63545;51.690;5.202;2022-10-31T06:49:13;40.20;;;19.77;;
74995;SDS011;63545;51.690;5.202;2022-10-31T06:51:38;37.33;;;19.93;;
74995;SDS011;63545;51.690;5.202;2022-10-31T06:54:03;35.93;;;20.23;;
74995;SDS011;63545;51.690;5.202;2022-10-31T06:56:29;39.03;;;20.33;;
74995;SDS011;63545;51.690;5.202;2022-10-31T06:58:54;38.42;;;20.48;;
74995;SDS011;63545;51.690;5.202;2022-10-31T07:01:19;37.90;;;20.13;;
74995;SDS011;63545;51.690;5.202;2022-10-31T07:03:45;38.07;;;19.50;;
74995;SDS011;63545;51.690;5.202;2022-10-31T07:06:10;34.67;;;19.37;;
74995;SDS011;63545;51.690;5.202;2022-10-31T07:08:35;32.93;;;18.50;;
74995;SDS011;63545;51.690;5.202;2022-10-31T07:11:01;38.90;;;18.97;;
74995;SDS011;63545;51.690;5.202;2022-10-31T07:13:26;32.67;;;18.27;;
74995;SDS011;63545;51.690;5.202;2022-10-31T07:15:52;36.77;;;18.67;;
74995;SDS011;63545;51.690;5.202;2022-10-31T07:18:19;37.75;;;19.30;;
74995;SDS011;63545;51.690;5.202;2022-10-31T07:20:44;36.60;;;18.80;;
74995;SDS011;63545;51.690;5.202;2022-10-31T07:23:10;44.13;;;18.70;;
74995;SDS011;63545;51.690;5.202;2022-10-31T07:25:37;36.22;;;19.42;;
74995;SDS011;63545;51.690;5.202;2022-10-31T07:28:06;36.35;;;19.27;;
74995;SDS011;63545;51.690;5.202;2022-10-31T07:30:32;38.63;;;20.27;;
74995;SDS011;63545;51.690;5.202;2022-10-31T07:32:57;38.07;;;19.77;;
74995;SDS011;63545;51.690;5.202;2022-10-31T07:35:24;36.20;;;20.27;;
74995;SDS011;63545;51.690;5.202;2022-10-31T07:37:50;42.90;;;22.02;;
74995;SDS011;63545;51.690;5.202;2022-10-31T07:40:16;42.00;;;22.00;;
74995;SDS011;63545;51.690;5.202;2022-10-31T07:42:43;40.30;;;21.87;;
74995;SDS011;63545;51.690;5.202;2022-10-31T07:45:10;46.03;;;22.02;;
74995;SDS011;63545;51.690;5.202;2022-10-31T07:47:43;42.55;;;21.92;;
74995;SDS011;63545;51.690;5.202;2022-10-31T07:50:09;40.45;;;22.00;;
74995;SDS011;63545;51.690;5.202;2022-10-31T07:52:38;42.20;;;21.07;;
74995;SDS011;63545;51.690;5.202;2022-10-31T07:55:04;44.47;;;22.77;;
74995;SDS011;63545;51.690;5.202;2022-10-31T07:57:30;45.78;;;23.85;;
74995;SDS011;63545;51.690;5.202;2022-10-31T07:59:55;43.00;;;22.87;;
74995;SDS011;63545;51.690;5.202;2022-10-31T08:02:21;44.93;;;23.33;;
74995;SDS011;63545;51.690;5.202;2022-10-31T08:04:46;39.30;;;22.97;;
74995;SDS011;63545;51.690;5.202;2022-10-31T08:07:12;43.05;;;23.15;;
74995;SDS011;63545;51.690;5.202;2022-10-31T08:09:37;36.90;;;22.70;;
74995;SDS011;63545;51.690;5.202;2022-10-31T08:12:03;35.70;;;21.13;;
74995;SDS011;63545;51.690;5.202;2022-10-31T08:14:28;40.40;;;22.00;;
74995;SDS011;63545;51.690;5.202;2022-10-31T08:16:54;41.77;;;22.70;;
74995;SDS011;63545;51.690;5.202;2022-10-31T08:19:19;35.93;;;20.60;;
74995;SDS011;63545;51.690;5.202;2022-10-31T08:21:45;35.50;;;21.10;;
74995;SDS011;63545;51.690;5.202;2022-10-31T08:24:10;36.92;;;21.13;;
74995;SDS011;63545;51.690;5.202;2022-10-31T08:26:35;36.57;;;21.40;;
74995;SDS011;63545;51.690;5.202;2022-10-31T08:29:01;40.60;;;21.33;;
74995;SDS011;63545;51.690;5.202;2022-10-31T08:31:27;38.17;;;21.17;;
74995;SDS011;63545;51.690;5.202;2022-10-31T08:33:53;39.40;;;21.08;;
74995;SDS011;63545;51.690;5.202;2022-10-31T08:36:19;37.58;;;21.55;;
74995;SDS011;63545;51.690;5.202;2022-10-31T08:38:46;42.17;;;21.70;;
74995;SDS011;63545;51.690;5.202;2022-10-31T08:41:12;41.53;;;23.35;;
74995;SDS011;63545;51.690;5.202;2022-10-31T08:43:37;38.10;;;22.23;;
74995;SDS011;63545;51.690;5.202;2022-10-31T08:46:02;37.07;;;21.97;;
74995;SDS011;63545;51.690;5.202;2022-10-31T08:48:28;40.07;;;21.37;;
74995;SDS011;63545;51.690;5.202;2022-10-31T08:50:55;44.90;;;25.07;;
74995;SDS011;63545;51.690;5.202;2022-10-31T08:53:21;45.53;;;23.67;;
74995;SDS011;63545;51.690;5.202;2022-10-31T08:55:47;43.65;;;24.40;;
74995;SDS011;63545;51.690;5.202;2022-10-31T08:58:14;43.63;;;24.40;;
74995;SDS011;63545;51.690;5.202;2022-10-31T09:00:43;47.42;;;25.52;;
74995;SDS011;63545;51.690;5.202;2022-10-31T09:03:10;45.93;;;24.73;;
74995;SDS011;63545;51.690;5.202;2022-10-31T09:05:37;46.38;;;25.55;;
74995;SDS011;63545;51.690;5.202;2022-10-31T09:08:03;42.00;;;23.57;;
74995;SDS011;63545;51.690;5.202;2022-10-31T09:10:30;46.55;;;23.77;;
74995;SDS011;63545;51.690;5.202;2022-10-31T09:12:57;47.30;;;23.33;;
74995;SDS011;63545;51.690;5.202;2022-10-31T09:15:23;40.20;;;22.55;;
74995;SDS011;63545;51.690;5.202;2022-10-31T09:17:50;38.83;;;22.25;;
74995;SDS011;63545;51.690;5.202;2022-10-31T09:20:15;42.03;;;21.67;;
74995;SDS011;63545;51.690;5.202;2022-10-31T09:22:41;48.33;;;22.80;;
74995;SDS011;63545;51.690;5.202;2022-10-31T09:25:06;45.47;;;23.35;;
74995;SDS011;63545;51.690;5.202;2022-10-31T09:27:32;41.60;;;22.77;;
74995;SDS011;63545;51.690;5.202;2022-10-31T09:29:57;38.17;;;22.83;;
74995;SDS011;63545;51.690;5.202;2022-10-31T09:32:22;42.40;;;22.77;;
74995;SDS011;63545;51.690;5.202;2022-10-31T09:34:48;43.63;;;21.83;;
74995;SDS011;63545;51.690;5.202;2022-10-31T09:37:13;36.20;;;20.98;;
74995;SDS011;63545;51.690;5.202;2022-10-31T09:39:38;37.67;;;20.40;;
74995;SDS011;63545;51.690;5.202;2022-10-31T09:55:56;35.70;;;21.65;;
74995;SDS011;63545;51.690;5.202;2022-10-31T09:58:23;38.80;;;21.42;;
74995;SDS011;63545;51.690;5.202;2022-10-31T10:00:51;37.37;;;21.80;;
74995;SDS011;63545;51.690;5.202;2022-10-31T10:06:22;38.78;;;21.20;;
74995;SDS011;63545;51.690;5.202;2022-10-31T10:08:49;36.97;;;20.83;;
74995;SDS011;63545;51.690;5.202;2022-10-31T10:11:20;34.20;;;21.27;;
74995;SDS011;63545;51.690;5.202;2022-10-31T10:19:07;38.63;;;20.03;;
74995;SDS011;63545;51.690;5.202;2022-10-31T10:24:59;37.50;;;19.95;;
74995;SDS011;63545;51.690;5.202;2022-10-31T10:33:08;37.80;;;22.90;;
74995;SDS011;63545;51.690;5.202;2022-10-31T10:35:40;42.57;;;22.97;;
74995;SDS011;63545;51.690;5.202;2022-10-31T10:40:51;46.10;;;23.73;;
74995;SDS011;63545;51.690;5.202;2022-10-31T10:51:54;40.05;;;22.35;;
74995;SDS011;63545;51.690;5.202;2022-10-31T10:58:11;49.05;;;24.30;;
74995;SDS011;63545;51.690;5.202;2022-10-31T11:00:16;48.67;;;25.83;;
74995;SDS011;63545;51.690;5.202;2022-10-31T11:02:44;41.67;;;23.70;;
74995;SDS011;63545;51.690;5.202;2022-10-31T11:05:13;45.40;;;24.60;;
74995;SDS011;63545;51.690;5.202;2022-10-31T11:07:44;42.33;;;24.58;;
74995;SDS011;63545;51.690;5.202;2022-10-31T11:10:13;49.72;;;25.75;;
74995;SDS011;63545;51.690;5.202;2022-10-31T11:12:40;50.15;;;25.60;;
74995;SDS011;63545;51.690;5.202;2022-10-31T11:15:07;50.40;;;25.93;;
74995;SDS011;63545;51.690;5.202;2022-10-31T11:17:42;49.67;;;26.30;;
74995;SDS011;63545;51.690;5.202;2022-10-31T11:22:42;52.47;;;26.90;;
74995;SDS011;63545;51.690;5.202;2022-10-31T11:25:21;46.78;;;26.42;;
74995;SDS011;63545;51.690;5.202;2022-10-31T11:28:08;49.65;;;26.05;;
74995;SDS011;63545;51.690;5.202;2022-10-31T11:33:27;45.90;;;26.30;;
74995;SDS011;63545;51.690;5.202;2022-10-31T11:35:55;51.40;;;26.85;;
74995;SDS011;63545;51.690;5.202;2022-10-31T11:38:23;51.80;;;27.70;;
74995;SDS011;63545;51.690;5.202;2022-10-31T11:40:57;50.17;;;27.83;;
74995;SDS011;63545;51.690;5.202;2022-10-31T11:43:25;51.85;;;29.00;;
74995;SDS011;63545;51.690;5.202;2022-10-31T11:45:51;53.08;;;28.98;;
74995;SDS011;63545;51.690;5.202;2022-10-31T11:48:19;53.70;;;29.60;;
74995;SDS011;63545;51.690;5.202;2022-10-31T11:50:51;57.63;;;29.65;;
74995;SDS011;63545;51.690;5.202;2022-10-31T11:53:37;61.15;;;29.98;;
74995;SDS011;63545;51.690;5.202;2022-10-31T11:56:04;59.67;;;30.47;;
74995;SDS011;63545;51.690;5.202;2022-10-31T11:58:41;52.30;;;30.60;;
74995;SDS011;63545;51.690;5.202;2022-10-31T12:01:20;58.97;;;31.05;;
74995;SDS011;63545;51.690;5.202;2022-10-31T12:06:38;59.33;;;31.15;;
74995;SDS011;63545;51.690;5.202;2022-10-31T12:09:25;55.60;;;32.30;;
74995;SDS011;63545;51.690;5.202;2022-10-31T12:11:59;55.92;;;30.98;;
74995;SDS011;63545;51.690;5.202;2022-10-31T12:17:19;56.70;;;32.13;;
74995;SDS011;63545;51.690;5.202;2022-10-31T12:25:26;61.13;;;32.60;;
74995;SDS011;63545;51.690;5.202;2022-10-31T12:28:00;61.55;;;31.77;;
74995;SDS011;63545;51.690;5.202;2022-10-31T12:30:49;57.08;;;32.13;;
74995;SDS011;63545;51.690;5.202;2022-10-31T12:44:39;55.00;;;30.45;;
74995;SDS011;63545;51.690;5.202;2022-10-31T12:50:05;54.10;;;29.90;;
74995;SDS011;63545;51.690;5.202;2022-10-31T12:53:08;55.22;;;30.65;;
74995;SDS011;63545;51.690;5.202;2022-10-31T12:58:09;55.40;;;29.90;;
74995;SDS011;63545;51.690;5.202;2022-10-31T13:00:41;54.33;;;29.10;;
74995;SDS011;63545;51.690;5.202;2022-10-31T13:03:28;52.53;;;27.83;;
74995;SDS011;63545;51.690;5.202;2022-10-31T13:05:59;54.55;;;28.27;;
74995;SDS011;63545;51.690;5.202;2022-10-31T13:08:42;53.10;;;28.77;;
74995;SDS011;63545;51.690;5.202;2022-10-31T13:11:15;54.75;;;27.10;;
74995;SDS011;63545;51.690;5.202;2022-10-31T13:16:24;51.97;;;26.87;;
74995;SDS011;63545;51.690;5.202;2022-10-31T13:18:59;52.33;;;27.50;;
74995;SDS011;63545;51.690;5.202;2022-10-31T13:21:34;54.22;;;26.88;;
74995;SDS011;63545;51.690;5.202;2022-10-31T13:24:04;49.03;;;26.88;;
74995;SDS011;63545;51.690;5.202;2022-10-31T13:31:54;49.50;;;26.13;;
74995;SDS011;63545;51.690;5.202;2022-10-31T13:40:04;50.10;;;26.63;;
74995;SDS011;63545;51.690;5.202;2022-10-31T13:45:14;51.13;;;25.95;;
74995;SDS011;63545;51.690;5.202;2022-10-31T13:47:41;49.57;;;25.20;;
74995;SDS011;63545;51.690;5.202;2022-10-31T13:50:23;45.65;;;25.63;;
74995;SDS011;63545;51.690;5.202;2022-10-31T13:52:50;46.90;;;25.20;;
74995;SDS011;63545;51.690;5.202;2022-10-31T13:55:34;44.17;;;24.57;;
74995;SDS011;63545;51.690;5.202;2022-10-31T13:58:03;47.40;;;24.90;;
74995;SDS011;63545;51.690;5.202;2022-10-31T14:00:30;45.55;;;24.70;;
74995;SDS011;63545;51.690;5.202;2022-10-31T14:02:59;42.40;;;23.58;;
74995;SDS011;63545;51.690;5.202;2022-10-31T14:05:34;40.67;;;22.90;;
74995;SDS011;63545;51.690;5.202;2022-10-31T14:08:04;46.97;;;23.02;;
74995;SDS011;63545;51.690;5.202;2022-10-31T14:10:46;43.60;;;21.98;;
74995;SDS011;63545;51.690;5.202;2022-10-31T14:15:57;41.50;;;22.33;;
74995;SDS011;63545;51.690;5.202;2022-10-31T14:18:30;42.95;;;22.50;;
74995;SDS011;63545;51.690;5.202;2022-10-31T14:20:57;46.35;;;23.25;;
74995;SDS011;63545;51.690;5.202;2022-10-31T14:26:06;46.60;;;20.80;;
74995;SDS011;63545;51.690;5.202;2022-10-31T14:28:34;38.58;;;20.45;;
74995;SDS011;63545;51.690;5.202;2022-10-31T14:31:00;35.40;;;17.87;;
74995;SDS011;63545;51.690;5.202;2022-10-31T14:33:27;35.17;;;18.15;;
74995;SDS011;63545;51.690;5.202;2022-10-31T14:35:56;34.72;;;17.08;;
74995;SDS011;63545;51.690;5.202;2022-10-31T14:52:07;33.28;;;16.60;;
74995;SDS011;63545;51.690;5.202;2022-10-31T14:54:34;35.53;;;16.75;;
74995;SDS011;63545;51.690;5.202;2022-10-31T14:57:03;35.97;;;16.90;;
74995;SDS011;63545;51.690;5.202;2022-10-31T14:59:33;27.33;;;15.18;;
74995;SDS011;63545;51.690;5.202;2022-10-31T15:02:02;31.13;;;14.23;;
74995;SDS011;63545;51.690;5.202;2022-10-31T15:04:35;29.50;;;15.32;;
74995;SDS011;63545;51.690;5.202;2022-10-31T15:09:59;25.88;;;14.90;;
74995;SDS011;63545;51.690;5.202;2022-10-31T15:12:27;28.73;;;14.65;;
74995;SDS011;63545;51.690;5.202;2022-10-31T15:14:54;29.95;;;15.23;;
74995;SDS011;63545;51.690;5.202;2022-10-31T15:17:22;27.40;;;14.30;;
74995;SDS011;63545;51.690;5.202;2022-10-31T15:19:48;25.52;;;15.10;;
74995;SDS011;63545;51.690;5.202;2022-10-31T15:22:15;29.70;;;14.65;;
74995;SDS011;63545;51.690;5.202;2022-10-31T15:24:41;29.90;;;14.73;;
74995;SDS011;63545;51.690;5.202;2022-10-31T15:27:15;27.33;;;15.48;;
74995;SDS011;63545;51.690;5.202;2022-10-31T15:32:19;33.13;;;15.27;;
74995;SDS011;63545;51.690;5.202;2022-10-31T15:34:47;30.70;;;15.32;;
74995;SDS011;63545;51.690;5.202;2022-10-31T15:37:13;32.77;;;15.57;;
74995;SDS011;63545;51.690;5.202;2022-10-31T15:39:41;32.67;;;15.93;;
74995;SDS011;63545;51.690;5.202;2022-10-31T15:47:36;32.80;;;15.00;;
74995;SDS011;63545;51.690;5.202;2022-10-31T15:50:02;33.90;;;16.00;;
74995;SDS011;63545;51.690;5.202;2022-10-31T15:52:40;31.75;;;15.52;;
74995;SDS011;63545;51.690;5.202;2022-10-31T15:57:41;34.77;;;17.23;;
74995;SDS011;63545;51.690;5.202;2022-10-31T16:00:30;33.95;;;16.38;;
74995;SDS011;63545;51.690;5.202;2022-10-31T16:13:34;34.05;;;16.25;;
74995;SDS011;63545;51.690;5.202;2022-10-31T16:16:02;31.52;;;15.70;;
74995;SDS011;63545;51.690;5.202;2022-10-31T16:18:35;31.17;;;16.67;;
74995;SDS011;63545;51.690;5.202;2022-10-31T16:21:02;27.95;;;16.23;;
74995;SDS011;63545;51.690;5.202;2022-10-31T16:23:28;33.13;;;16.10;;
74995;SDS011;63545;51.690;5.202;2022-10-31T16:25:53;32.70;;;16.50;;
74995;SDS011;63545;51.690;5.202;2022-10-31T16:28:20;28.88;;;15.75;;
74995;SDS011;63545;51.690;5.202;2022-10-31T16:30:47;35.85;;;15.40;;
74995;SDS011;63545;51.690;5.202;2022-10-31T16:35:48;32.40;;;15.65;;
74995;SDS011;63545;51.690;5.202;2022-10-31T16:38:14;34.10;;;16.10;;
74995;SDS011;63545;51.690;5.202;2022-10-31T16:40:39;30.57;;;16.20;;
74995;SDS011;63545;51.690;5.202;2022-10-31T16:43:07;35.17;;;16.77;;
74995;SDS011;63545;51.690;5.202;2022-10-31T16:45:36;31.23;;;16.37;;
74995;SDS011;63545;51.690;5.202;2022-10-31T16:48:05;26.33;;;15.70;;
74995;SDS011;63545;51.690;5.202;2022-10-31T16:50:34;32.83;;;16.27;;
74995;SDS011;63545;51.690;5.202;2022-10-31T16:52:59;30.73;;;16.37;;
74995;SDS011;63545;51.690;5.202;2022-10-31T16:55:24;31.67;;;17.13;;
74995;SDS011;63545;51.690;5.202;2022-10-31T16:57:50;31.15;;;15.50;;
74995;SDS011;63545;51.690;5.202;2022-10-31T17:00:24;33.60;;;15.60;;
74995;SDS011;63545;51.690;5.202;2022-10-31T17:02:51;32.88;;;15.82;;
74995;SDS011;63545;51.690;5.202;2022-10-31T17:05:19;36.95;;;16.65;;
74995;SDS011;63545;51.690;5.202;2022-10-31T17:07:46;33.78;;;15.85;;
74995;SDS011;63545;51.690;5.202;2022-10-31T17:10:12;33.30;;;16.20;;
74995;SDS011;63545;51.690;5.202;2022-10-31T17:12:39;30.38;;;15.50;;
74995;SDS011;63545;51.690;5.202;2022-10-31T17:15:08;30.02;;;16.25;;
74995;SDS011;63545;51.690;5.202;2022-10-31T17:17:39;33.90;;;16.10;;